createdAt,value
2022-12-31T09:47:10.315Z,55.63
2022-12-31T09:49:28.226Z,61.25
2022-12-31T09:51:55.171Z,50.12
2022-12-31T09:54:15.497Z,46.63
2022-12-31T09:56:26.815Z,46.50
2022-12-31T09:58:35.431Z,51.37
2022-12-31T10:00:47.250Z,44.42
2022-12-31T10:03:00.745Z,49.83
2022-12-31T10:05:40.906Z,54.15
2022-12-31T10:08:10.742Z,47.58
2022-12-31T10:10:22.594Z,47.53
2022-12-31T10:12:27.584Z,49.42
2022-12-31T10:14:57.558Z,46.15
2022-12-31T10:17:06.002Z,53.15
2022-12-31T10:19:59.969Z,47.28
2022-12-31T10:22:24.686Z,51.28
2022-12-31T10:24:59.508Z,53.08
2022-12-31T10:27:27.950Z,55.38
2022-12-31T10:29:43.075Z,61.63
2022-12-31T10:32:16.368Z,52.53
2022-12-31T10:34:46.347Z,54.47
2022-12-31T10:36:59.383Z,54.90
2022-12-31T10:39:14.363Z,40.47
2022-12-31T10:41:55.537Z,50.72
2022-12-31T10:44:15.805Z,54.08
2022-12-31T10:46:44.490Z,51.00
2022-12-31T10:49:11.839Z,51.78
2022-12-31T10:51:50.501Z,51.22
2022-12-31T10:54:13.837Z,54.45
2022-12-31T10:57:07.084Z,53.15
2022-12-31T10:59:27.979Z,63.80
2022-12-31T11:03:51.696Z,47.05
2022-12-31T11:08:30.483Z,57.65
2022-12-31T11:10:49.446Z,65.35
2022-12-31T11:13:06.404Z,54.55
2022-12-31T11:15:21.207Z,58.08
2022-12-31T11:17:38.670Z,58.10
2022-12-31T11:19:53.382Z,52.65
2022-12-31T11:22:05.087Z,58.95
2022-12-31T11:24:25.737Z,57.22
2022-12-31T11:26:27.990Z,56.40
2022-12-31T11:28:39.275Z,51.50
2022-12-31T11:30:41.583Z,47.95
2022-12-31T11:33:03.772Z,57.97
2022-12-31T11:35:18.389Z,59.95
2022-12-31T11:37:39.195Z,58.55
2022-12-31T11:39:41.539Z,56.80
2022-12-31T11:41:52.283Z,54.10
2022-12-31T11:44:06.171Z,57.88
2022-12-31T11:46:43.526Z,52.25
2022-12-31T11:49:07.330Z,48.65
2022-12-31T11:51:44.261Z,73.20
2022-12-31T11:53:57.609Z,49.85
2022-12-31T11:56:18.511Z,46.63
2022-12-31T11:58:22.282Z,50.85
2022-12-31T12:00:28.182Z,41.72
2022-12-31T12:02:37.145Z,46.15
2022-12-31T12:04:39.626Z,46.13
2022-12-31T12:06:43.625Z,50.50
2022-12-31T12:08:46.763Z,44.30
2022-12-31T12:10:52.744Z,41.42
2022-12-31T12:12:56.890Z,49.92
2022-12-31T12:14:59.493Z,50.78
2022-12-31T12:17:05.552Z,50.33
2022-12-31T12:19:18.114Z,47.35
2022-12-31T12:21:23.386Z,52.58
2022-12-31T12:23:26.847Z,57.03
2022-12-31T12:25:41.702Z,55.78
2022-12-31T12:27:44.447Z,48.33
2022-12-31T12:29:48.136Z,64.18
2022-12-31T12:32:01.261Z,57.88
2022-12-31T12:34:05.019Z,49.70
2022-12-31T12:36:15.704Z,55.17
2022-12-31T12:38:23.237Z,55.80
2022-12-31T12:40:33.383Z,55.25
2022-12-31T12:42:36.354Z,53.00
2022-12-31T12:44:40.235Z,70.15
2022-12-31T12:46:50.037Z,54.38
2022-12-31T12:48:57.744Z,57.88
2022-12-31T12:51:00.476Z,56.30
2022-12-31T12:53:13.281Z,53.15
2022-12-31T12:55:33.857Z,50.42
2022-12-31T12:57:49.261Z,57.80
2022-12-31T13:00:07.729Z,48.63
2022-12-31T13:02:25.091Z,50.50
2022-12-31T13:04:52.416Z,47.80
2022-12-31T13:07:01.037Z,48.15
2022-12-31T13:09:22.536Z,48.20
2022-12-31T13:11:46.275Z,49.55
2022-12-31T13:14:01.609Z,43.47
2022-12-31T13:16:41.971Z,47.50
2022-12-31T13:19:09.003Z,46.88
2022-12-31T13:21:21.960Z,50.40
2022-12-31T13:23:34.817Z,47.78
2022-12-31T13:26:04.277Z,51.45
2022-12-31T13:28:13.068Z,52.75
2022-12-31T13:30:19.952Z,44.92
2022-12-31T13:32:32.624Z,55.83
2022-12-31T13:34:41.723Z,60.63
2022-12-31T13:36:47.604Z,54.42
2022-12-31T13:38:56.104Z,49.55
2022-12-31T13:41:19.385Z,54.25
2022-12-31T13:43:48.864Z,49.17
2022-12-31T13:46:28.194Z,53.90
2022-12-31T13:48:37.492Z,51.72
2022-12-31T13:50:51.391Z,47.65
2022-12-31T13:53:27.115Z,54.08
2022-12-31T13:55:50.824Z,48.55
2022-12-31T13:58:14.944Z,42.55
2022-12-31T14:00:53.362Z,43.45
2022-12-31T14:03:08.573Z,45.00
2022-12-31T14:05:24.058Z,44.55
2022-12-31T14:07:38.978Z,47.83
2022-12-31T14:09:46.727Z,43.58
2022-12-31T14:12:04.349Z,42.38
2022-12-31T14:14:28.387Z,48.25
2022-12-31T14:16:43.269Z,47.60
2022-12-31T14:19:05.356Z,43.30
2022-12-31T14:21:14.533Z,45.10
2022-12-31T14:23:37.136Z,44.40
2022-12-31T14:26:11.611Z,41.55
2022-12-31T14:28:21.619Z,46.37
2022-12-31T14:30:31.025Z,41.85
2022-12-31T14:33:08.608Z,42.80
2022-12-31T14:35:29.042Z,40.80
2022-12-31T14:37:49.251Z,40.22
2022-12-31T14:39:57.849Z,50.72
2022-12-31T14:42:23.609Z,41.37
2022-12-31T14:44:32.293Z,41.63
2022-12-31T14:47:07.763Z,38.80
2022-12-31T14:49:44.542Z,35.40
2022-12-31T14:51:47.235Z,42.92
2022-12-31T14:53:54.760Z,43.03
2022-12-31T14:56:03.449Z,36.25
2022-12-31T14:58:39.805Z,40.20
2022-12-31T15:01:04.506Z,36.85
2022-12-31T15:03:16.349Z,44.65
2022-12-31T15:05:22.245Z,40.00
2022-12-31T15:07:33.883Z,40.38
2022-12-31T15:10:04.850Z,40.85
2022-12-31T15:12:42.121Z,42.65
2022-12-31T15:14:53.819Z,55.83
2022-12-31T15:17:25.653Z,37.83
2022-12-31T15:19:52.626Z,37.97
2022-12-31T15:22:28.373Z,37.63
2022-12-31T15:24:30.936Z,36.15
2022-12-31T15:26:52.636Z,36.15
2022-12-31T15:29:19.545Z,72.70
2022-12-31T15:31:22.104Z,40.42
2022-12-31T15:33:31.085Z,42.45
2022-12-31T15:35:49.993Z,36.45
2022-12-31T15:38:01.386Z,34.33
2022-12-31T15:40:16.253Z,36.90
2022-12-31T15:42:47.271Z,37.25
2022-12-31T15:45:02.308Z,38.42
2022-12-31T15:47:16.153Z,38.83
2022-12-31T15:49:23.310Z,35.22
2022-12-31T15:51:44.209Z,32.42
2022-12-31T15:53:53.181Z,33.03
2022-12-31T15:55:58.096Z,34.40
2022-12-31T15:58:12.407Z,37.63
2022-12-31T16:00:23.915Z,41.03
2022-12-31T16:02:28.311Z,41.45
2022-12-31T16:04:34.771Z,38.00
2022-12-31T16:06:38.784Z,32.65
2022-12-31T16:08:46.262Z,40.10
2022-12-31T16:10:48.992Z,31.20
2022-12-31T16:12:53.049Z,37.72
2022-12-31T16:14:58.539Z,37.25
2022-12-31T16:17:01.621Z,41.25
2022-12-31T16:19:03.943Z,34.25
2022-12-31T16:21:22.590Z,33.53
2022-12-31T16:23:27.560Z,38.83
2022-12-31T16:25:33.531Z,40.12
2022-12-31T16:27:36.637Z,52.55
2022-12-31T16:29:44.469Z,40.67
2022-12-31T16:31:48.849Z,43.00
2022-12-31T16:33:51.619Z,42.58
2022-12-31T16:35:59.505Z,36.22
2022-12-31T16:38:07.920Z,43.13
2022-12-31T16:40:20.805Z,44.63
2022-12-31T16:42:28.378Z,34.92
2022-12-31T16:44:30.873Z,38.58
2022-12-31T16:46:33.650Z,39.20
2022-12-31T16:48:37.736Z,38.97
2022-12-31T16:50:44.869Z,33.10
2022-12-31T16:52:50.602Z,38.38
2022-12-31T16:54:54.277Z,46.60
2022-12-31T16:56:58.871Z,41.75
2022-12-31T16:59:17.585Z,44.90
2022-12-31T17:01:27.893Z,40.92
2022-12-31T17:03:30.532Z,44.50
2022-12-31T17:05:36.229Z,39.45
2022-12-31T17:07:42.452Z,43.42
2022-12-31T17:09:44.745Z,48.22
2022-12-31T17:12:07.737Z,70.30
2022-12-31T17:14:15.487Z,87.15
2022-12-31T17:16:18.532Z,63.28
2022-12-31T17:18:24.296Z,72.12
2022-12-31T17:20:29.781Z,99.57
2022-12-31T17:22:41.791Z,82.93
2022-12-31T17:24:48.690Z,62.10
2022-12-31T17:26:52.408Z,58.85
2022-12-31T17:28:57.766Z,47.25
2022-12-31T17:31:02.182Z,50.67
2022-12-31T17:33:22.647Z,52.30
2022-12-31T17:35:42.661Z,56.05
2022-12-31T17:37:45.648Z,51.93
2022-12-31T17:39:53.621Z,46.78
2022-12-31T17:41:58.158Z,52.95
2022-12-31T17:44:00.869Z,44.78
2022-12-31T17:46:10.740Z,43.97
2022-12-31T17:48:16.963Z,46.97
2022-12-31T17:50:25.837Z,52.20
2022-12-31T17:52:28.427Z,53.92
2022-12-31T17:54:30.779Z,62.95
2022-12-31T17:56:33.397Z,81.93
2022-12-31T17:58:44.971Z,50.33
2022-12-31T18:00:47.484Z,57.17
2022-12-31T18:02:50.270Z,51.80
2022-12-31T18:04:53.224Z,54.72
2022-12-31T18:06:55.844Z,51.15
2022-12-31T18:08:58.550Z,58.72
2022-12-31T18:11:00.946Z,54.95
2022-12-31T18:13:05.902Z,52.25
2022-12-31T18:15:09.029Z,59.67
2022-12-31T18:17:15.436Z,57.33
2022-12-31T18:19:45.779Z,55.97
2022-12-31T18:21:41.461Z,53.30
2022-12-31T18:23:46.311Z,54.17
2022-12-31T18:25:48.908Z,74.47
2022-12-31T18:27:52.210Z,56.83
2022-12-31T18:29:59.094Z,51.42
2022-12-31T18:32:04.995Z,51.57
2022-12-31T18:34:12.059Z,60.72
2022-12-31T18:36:16.211Z,92.85
2022-12-31T18:38:19.852Z,91.00
2022-12-31T18:40:22.561Z,61.10
2022-12-31T18:42:28.424Z,50.70
2022-12-31T18:44:30.823Z,57.60
2022-12-31T18:46:33.632Z,56.92
2022-12-31T18:48:36.828Z,54.20
2022-12-31T18:50:41.139Z,62.65
2022-12-31T18:52:44.277Z,60.80
2022-12-31T18:54:46.669Z,55.53
2022-12-31T18:56:53.933Z,67.75
2022-12-31T18:58:59.935Z,69.47
2022-12-31T19:01:02.502Z,65.20
2022-12-31T19:03:07.976Z,140.68
2022-12-31T19:05:21.571Z,61.30
2022-12-31T19:07:23.909Z,59.30
2022-12-31T19:11:49.079Z,62.58
2022-12-31T19:13:51.475Z,71.72
2022-12-31T19:15:55.577Z,102.38
2022-12-31T19:17:59.171Z,68.00
2022-12-31T19:20:04.444Z,63.10
2022-12-31T19:22:06.889Z,61.63
2022-12-31T19:24:19.466Z,68.10
2022-12-31T19:26:22.792Z,72.80
2022-12-31T19:28:27.181Z,74.62
2022-12-31T19:30:33.379Z,75.53
2022-12-31T19:32:35.780Z,108.47
2022-12-31T19:34:38.106Z,77.62
2022-12-31T19:36:44.299Z,70.75
2022-12-31T19:38:47.194Z,78.78
2022-12-31T19:40:50.595Z,79.40
2022-12-31T19:42:54.909Z,77.53
2022-12-31T19:44:57.221Z,71.12
2022-12-31T19:46:59.618Z,82.95
2022-12-31T19:49:02.274Z,79.03
2022-12-31T19:51:09.329Z,76.40
2022-12-31T19:53:15.112Z,78.80
2022-12-31T19:55:19.584Z,84.80
2022-12-31T19:57:21.978Z,81.15
2022-12-31T19:59:24.343Z,81.87
2022-12-31T20:01:27.016Z,88.62
2022-12-31T20:03:30.058Z,96.87
2022-12-31T20:05:32.457Z,82.22
2022-12-31T20:07:34.870Z,78.55
2022-12-31T20:09:37.518Z,95.30
2022-12-31T20:11:39.895Z,326.55
2022-12-31T20:13:42.640Z,120.37
2022-12-31T20:15:47.903Z,200.55
2022-12-31T20:17:50.318Z,84.37
2022-12-31T20:19:52.737Z,98.90
2022-12-31T20:21:55.384Z,88.85
2022-12-31T20:23:57.698Z,84.70
2022-12-31T20:26:00.947Z,85.70
2022-12-31T20:28:03.806Z,102.12
2022-12-31T20:30:07.110Z,97.50
2022-12-31T20:32:09.533Z,102.80
2022-12-31T20:34:12.447Z,109.07
2022-12-31T20:36:16.559Z,108.70
2022-12-31T20:38:18.899Z,103.22
2022-12-31T20:40:21.507Z,101.93
2022-12-31T20:42:23.901Z,152.02
2022-12-31T20:44:26.225Z,121.47
2022-12-31T20:46:30.547Z,135.20
2022-12-31T20:48:32.904Z,121.70
2022-12-31T20:50:35.792Z,110.03
2022-12-31T20:52:38.440Z,106.65
2022-12-31T20:54:40.785Z,115.43
2022-12-31T20:56:43.217Z,122.65
2022-12-31T20:58:46.068Z,120.93
2022-12-31T21:00:50.133Z,120.18
2022-12-31T21:03:03.871Z,225.80
2022-12-31T21:05:11.337Z,98.20
2022-12-31T21:07:13.957Z,110.63
2022-12-31T21:09:16.304Z,94.47
2022-12-31T21:11:37.301Z,94.35
2022-12-31T21:13:39.791Z,91.97
2022-12-31T21:15:42.508Z,86.25
2022-12-31T21:17:45.469Z,92.03
2022-12-31T21:19:47.820Z,117.43
2022-12-31T21:21:50.166Z,110.43
2022-12-31T21:23:53.256Z,111.20
2022-12-31T21:25:55.544Z,314.10
2022-12-31T21:27:57.953Z,124.53
2022-12-31T21:32:22.863Z,110.85
2022-12-31T21:34:25.230Z,104.50
2022-12-31T21:36:27.978Z,108.32
2022-12-31T21:38:30.364Z,108.97
2022-12-31T21:40:33.193Z,115.18
2022-12-31T21:42:35.881Z,101.82
2022-12-31T21:44:38.215Z,94.87
2022-12-31T21:46:54.516Z,84.72
2022-12-31T21:49:03.538Z,82.78
2022-12-31T21:51:09.635Z,86.40
2022-12-31T21:53:12.525Z,90.70
2022-12-31T21:55:33.720Z,80.32
2022-12-31T21:57:59.045Z,80.78
2022-12-31T22:00:41.021Z,76.62
2022-12-31T22:02:59.699Z,82.78
2022-12-31T22:05:04.163Z,74.93
2022-12-31T22:07:10.931Z,75.85
2022-12-31T22:09:13.611Z,82.07
2022-12-31T22:11:17.916Z,74.62
2022-12-31T22:13:20.710Z,85.00
2022-12-31T22:15:23.353Z,74.28
2022-12-31T22:17:25.730Z,89.30
2022-12-31T22:19:28.006Z,79.47
2022-12-31T22:21:30.923Z,83.43
2022-12-31T22:23:34.640Z,132.57
2022-12-31T22:25:38.415Z,98.65
2022-12-31T22:27:41.137Z,86.40
2022-12-31T22:29:43.565Z,90.68
2022-12-31T22:31:45.990Z,91.00
2022-12-31T22:33:48.903Z,89.78
2022-12-31T22:36:06.273Z,88.20
2022-12-31T22:38:12.148Z,81.45
2022-12-31T22:40:15.300Z,78.30
2022-12-31T22:42:17.664Z,86.00
2022-12-31T22:44:20.009Z,104.40
2022-12-31T22:46:25.589Z,111.03
2022-12-31T22:48:28.154Z,143.30
2022-12-31T22:50:30.459Z,130.10
2022-12-31T22:52:33.118Z,153.00
2022-12-31T22:54:35.755Z,144.30
2022-12-31T22:56:38.062Z,132.80
2022-12-31T22:58:41.017Z,125.18
2022-12-31T23:00:43.353Z,113.50
2022-12-31T23:02:46.255Z,126.68
2022-12-31T23:04:49.342Z,119.50
2022-12-31T23:06:51.753Z,107.93
2022-12-31T23:09:13.184Z,106.45
2022-12-31T23:11:15.791Z,90.43
2022-12-31T23:13:36.581Z,99.40
2022-12-31T23:15:57.420Z,147.40
2022-12-31T23:20:42.623Z,166.45
2022-12-31T23:23:04.562Z,146.15
2022-12-31T23:25:07.486Z,150.40
2022-12-31T23:27:11.303Z,148.75
2022-12-31T23:29:13.618Z,132.55
2022-12-31T23:31:16.306Z,132.65
2022-12-31T23:33:24.395Z,123.20
2022-12-31T23:35:26.797Z,117.62
2022-12-31T23:37:29.484Z,112.18
2022-12-31T23:39:31.990Z,112.15
2022-12-31T23:41:34.258Z,116.78
2022-12-31T23:43:36.812Z,127.35
2022-12-31T23:45:39.205Z,118.90
2022-12-31T23:47:41.713Z,145.70
2022-12-31T23:49:44.331Z,139.25
2022-12-31T23:51:46.709Z,140.73
2022-12-31T23:53:49.805Z,136.82
2022-12-31T23:55:53.294Z,145.57
2022-12-31T23:57:55.622Z,147.05
2022-12-31T23:59:57.957Z,136.18
